Terminal Aerodrome Forecast
Issued by NWS Corpus Christi, TX

Home | Current Version | Previous Version | Text Only | Print | Product List | Glossary On
Versions: 1 2 3 4 5 6 7 8 9 10 11 12 13
000
FTUS44 KCRP 251130
TAFVCT
TAF
KVCT 251130Z 2512/2612 17007KT P6SM BKN021
      TEMPO 2512/2514 SCT021
     FM251500 18016G22KT P6SM BKN022
     FM251900 17019G26KT P6SM BKN035
     FM260200 16016KT P6SM BKN012
     FM260900 18011KT P6SM OVC017=

USA.gov is the U.S. government's official web portal to all federal, state and local government web resources and services.